Lehigh Acres, FL (33970)

9:49 PM EST on January 25, 2015 (GMT -0500)
Unger Ave | Change Station
CLOSE
Current Station
Personal Weather Station
Location: Fortmyers, FL
Elevation: 49 ft
Nearby Weather Stations

Elev 49 ft 26.55 °N, 81.66 °W | Updated 10 minutes ago

Clear
Clear
51.2 °F
Feels Like 51.2 °F
N
0.0
Wind Variable Wind from South
Gusts 0.0 mph

Today
High -- | Low -- °F
--% Chance of Precip.
Yesterday
High -- | Low -- °F
Precip. -- in
7:14 AM 6:03 PM
Waxing Crescent, 38% visible
Pressure 30.04 in
Visibility 10.0 miles
Clouds Clear
Dew Point 49 °F
Humidity 91%
Rainfall 0.00 in
Snow Depth Not available.
UV 0 out of 12
Pollen 8.00 out of 12
Air Quality Not available.
Flu Activity Not available.
METAR KRSW 260153Z 00000KT 10SM CLR 13/09 A3004 RMK AO2 SLP170 T01280094

More Conditions Fewer Conditions

Pressure 30.04 in
Visibility 10.0 miles
Clouds Clear
Dew Point 49 °F
Humidity 91%
Rainfall 0.00 in
Snow Depth Not available.
UV 0 out of 12
Pollen 8.00 out of 12
Air Quality Not available.
Flu Activity Not available.
METAR KRSW 260153Z 00000KT 10SM CLR 13/09 A3004 RMK AO2 SLP170 T01280094

More Conditions Fewer Conditions

10-Day Weather Forecast

Almanac

Astronomy

Jan. 25, 2015 Rise Set
Actual Time
Civil Twilight
Nautical Twilight
Astronomical Twilight
Moon
Length of Visible Light
Length of Day
Tomorrow will be .
, % of the Moon is Illuminated

Today's Extremes

State Highs State Lows

Community

WunderPhotos

Upload Photos

1,790,085 photos uploaded!

WunderBlogs® & News

Nearby

Air Quality

  Air Quality AQ Index Pollutant
Not available.

Snow Depth

Station Depth Elevation

Earthquake Activity

City Distance Mag. Time & Date
Minimum magnitude displayed is 2.5.

Coastal Water Temperatures

Place Temperature

Nearby Weather Stations